Latest Weather Observations for St George

IDQ60801

Issued at 9:35 pm EST Monday 20 October 2014 (issued every 30 minutes, with the page automatically refreshed every 10 minutes)

About weather observations | Map of weather stations | Latest weather observations for QLD | Other Formats
Station Details ID: 043109 Name: ST GEORGE AIRPORT Lat: -28.05 Lon: 148.59 Height: 198.5 m
Data from the previous 72 hours. | See also: Recent months at St George
Date/Time
EST
Temp
°C
App
Temp
°C
Dew
Point
Rel
Hum
%
Delta-T
°C
Wind Press
QNH
hPa
Press
MSL
hPa
Rain
since 9 am
mm
Dir
 
Spd
km/h
Gust
km/h
Spd
kts
Gust
kts
20/09:30pm 21.7 20.9 6.4 37 7.8 E 0 0 0 0 1021.9 - 0.0
20/09:00pm 23.9 21.2 3.8 27 9.9 E 7 9 4 5 1021.7 1020.9 0.0
20/08:30pm 25.1 22.5 4.3 26 10.5 E 7 9 4 5 1021.5 - 0.0
20/08:00pm 24.6 22.1 3.8 26 10.3 ESE 6 9 3 5 1021.3 - 0.0
20/07:30pm 26.8 24.2 4.0 23 11.5 ESE 7 9 4 5 1020.9 - 0.0
20/07:00pm 28.3 25.6 3.9 21 12.4 E 7 9 4 5 1020.5 - 0.0
20/06:30pm 29.4 26.6 3.4 19 13.2 E 7 9 4 5 1020.2 - 0.0
20/06:00pm 30.9 27.3 3.0 17 14.2 ESE 11 19 6 10 1019.9 1019.2 0.0
20/05:30pm 32.1 27.8 3.1 16 14.9 ESE 15 20 8 11 1019.7 - 0.0
20/05:00pm 32.4 27.2 2.5 15 15.3 ESE 19 28 10 15 1019.5 - 0.0
20/04:30pm 32.7 28.1 1.7 14 15.6 ESE 15 24 8 13 1019.4 - 0.0
20/04:00pm 32.3 28.2 2.4 15 15.2 SE 13 28 7 15 1019.3 - 0.0
20/03:30pm 32.8 29.0 1.8 14 15.7 E 11 26 6 14 1019.4 - 0.0
20/03:00pm 32.6 28.2 2.6 15 15.3 SE 15 28 8 15 1019.6 1018.9 0.0
20/02:30pm 32.7 27.7 3.6 16 15.2 E 19 33 10 18 1019.9 - 0.0
20/02:00pm 31.8 27.2 3.8 17 14.6 SE 17 24 9 13 1020.4 - 0.0
20/01:30pm 32.5 27.1 2.5 15 15.3 SSE 20 32 11 17 1020.9 - 0.0
20/01:00pm 31.4 26.4 3.4 17 14.4 SSE 19 24 10 13 1021.5 - 0.0
20/12:30pm 31.4 28.4 4.2 18 14.2 E 9 17 5 9 1022.1 - 0.0
20/12:00pm 31.6 28.0 5.2 19 14.0 ENE 13 24 7 13 1022.7 1022.0 0.0
20/11:30am 30.4 26.8 4.9 20 13.4 SE 13 24 7 13 1023.2 - 0.0
20/11:00am 29.2 26.7 6.6 24 12.1 NNE 9 17 5 9 1023.8 - 0.0
20/10:30am 28.9 26.6 7.5 26 11.6 N 9 17 5 9 1024.2 - 0.0
20/10:00am 27.9 25.7 7.7 28 11.0 NNW 9 13 5 7 1024.5 - 0.0
20/09:30am 26.1 23.3 8.6 33 9.6 N 13 20 7 11 1024.7 - 0.0
20/09:00am 25.1 22.0 10.2 39 8.3 N 17 24 9 13 1024.8 1024.1 0.0
20/08:30am 23.6 19.9 10.3 43 7.4 N 20 30 11 16 1024.6 - 0.0
20/08:00am 23.3 19.4 10.7 45 7.0 N 22 28 12 15 1024.4 - 0.0
20/07:30am 22.1 18.1 10.6 48 6.4 N 22 32 12 17 1024.3 - 0.0
20/07:00am 20.8 17.0 9.7 49 6.0 N 20 28 11 15 1024.3 - 0.0
20/06:30am 19.7 16.6 8.7 49 5.8 N 15 22 8 12 1024.0 - 0.0
20/06:00am 18.7 15.4 8.1 50 5.5 N 15 19 8 10 1023.5 1022.8 0.0
20/05:30am 18.1 15.2 8.1 52 5.2 N 13 19 7 10 1023.2 - 0.0
20/05:00am 16.2 13.6 6.1 51 5.0 NNE 9 13 5 7 1023.0 - 0.0
20/04:30am 16.8 13.8 6.0 49 5.3 NNE 11 15 6 8 1022.6 - 0.0
20/04:00am 14.8 12.6 6.1 56 4.2 NNE 7 11 4 6 1022.3 - 0.0
20/03:30am 14.3 12.2 5.9 57 4.0 ENE 6 7 3 4 1022.3 - 0.0
20/03:00am 14.6 12.4 5.4 54 4.4 NE 6 7 3 4 1022.3 1021.6 0.0
20/02:30am 15.3 13.6 5.8 53 4.6 NE 4 11 2 6 1022.2 - 0.0
20/02:00am 15.0 13.2 5.5 53 4.5 S 4 6 2 3 1022.6 - 0.0
20/01:30am 15.9 15.1 6.6 54 4.6 CALM 0 0 0 0 1022.6 - 0.0
20/01:00am 16.0 15.0 5.6 50 5.0 CALM 0 0 0 0 1022.9 - 0.0
20/12:30am 16.4 14.2 5.4 48 5.3 N 6 7 3 4 1023.2 - 0.0
20/12:00am 17.1 16.2 6.0 48 5.4 NNW 0 0 0 0 1023.3 1022.6 0.0
 
Date/Time
EST
Temp
°C
App
Temp
°C
Dew
Point
Rel
Hum
%
Delta-T
°C
Wind Press
QNH
hPa
Press
MSL
hPa
Rain
since 9 am
mm
Dir
 
Spd
km/h
Gust
km/h
Spd
kts
Gust
kts
19/11:30pm 17.4 16.4 5.4 45 5.8 CALM 0 0 0 0 1023.6 - 0.0
19/11:00pm 18.0 16.9 4.9 42 6.3 CALM 0 0 0 0 1023.7 - 0.0
19/10:30pm 18.7 17.6 5.2 41 6.6 CALM 0 0 0 0 1023.6 - 0.0
19/10:00pm 18.7 16.3 4.1 38 7.0 E 6 7 3 4 1023.6 - 0.0
19/09:30pm 19.5 18.3 4.4 37 7.3 CALM 0 0 0 0 1023.4 - 0.0
19/09:00pm 19.9 17.5 4.4 36 7.5 ESE 6 9 3 5 1023.3 1022.6 0.0
19/08:30pm 21.2 18.8 4.3 33 8.3 E 6 6 3 3 1023.0 - 0.0
19/08:00pm 22.1 19.5 3.3 29 9.1 E 6 7 3 4 1022.6 - 0.0
19/07:30pm 24.4 21.8 4.2 27 10.1 ESE 7 9 4 5 1022.3 - 0.0
19/07:00pm 25.6 23.0 4.1 25 10.8 ESE 7 9 4 5 1022.0 - 0.0
19/06:30pm 27.0 24.3 3.5 22 11.8 E 7 9 4 5 1021.7 - 0.0
19/06:00pm 28.4 25.1 2.6 19 12.8 ESE 9 13 5 7 1021.3 1020.6 0.0
19/05:30pm 29.2 25.5 2.5 18 13.4 E 11 17 6 9 1021.2 - 0.0
19/05:00pm 29.4 25.0 2.6 18 13.5 ESE 15 24 8 13 1020.9 - 0.0
19/04:30pm 29.6 26.1 3.5 19 13.3 E 11 19 6 10 1020.8 - 0.0
19/04:00pm 29.8 25.8 2.9 18 13.6 ESE 13 19 7 10 1020.7 - 0.0
19/03:30pm 29.5 25.9 2.7 18 13.5 SE 11 19 6 10 1020.9 - 0.0
19/03:00pm 29.8 25.6 3.7 19 13.3 ESE 15 22 8 12 1021.1 1020.4 0.0
19/02:30pm 29.3 24.1 3.3 19 13.2 ESE 20 24 11 13 1021.5 - 0.0
19/02:00pm 29.8 26.6 5.1 21 13.0 NW 11 19 6 10 1022.0 - 0.0
19/01:30pm 28.6 24.9 4.2 21 12.5 ESE 13 24 7 13 1022.7 - 0.0
19/01:00pm 28.0 25.0 6.2 25 11.5 NW 11 20 6 11 1023.2 - 0.0
19/12:30pm 28.4 25.6 7.1 26 11.5 NNE 11 20 6 11 1024.0 - 0.0
19/12:00pm 27.5 24.0 7.4 28 10.8 NNE 15 24 8 13 1024.5 1023.8 0.0
19/11:30am 27.9 25.1 8.7 30 10.6 NNW 13 30 7 16 1025.1 - 0.0
19/11:00am 26.4 22.9 8.8 33 9.7 NW 17 28 9 15 1025.5 - 0.0
19/10:30am 25.5 21.8 9.3 36 8.9 NNE 19 30 10 16 1026.0 - 0.0
19/10:00am 24.3 19.9 9.1 38 8.3 N 22 33 12 18 1026.4 - 0.0
19/09:30am 24.0 19.4 9.6 40 7.9 NNE 24 33 13 18 1026.6 - 0.0
19/09:00am 23.4 18.9 10.1 43 7.3 NNE 24 33 13 18 1026.7 1026.1 0.0
19/08:30am 22.1 16.3 9.6 45 6.8 N 30 41 16 22 1027.0 - 0.0
19/08:00am 21.5 16.5 9.7 47 6.4 NNE 26 35 14 19 1027.0 - 0.0
19/07:30am 20.3 16.4 9.5 50 5.8 NNE 20 28 11 15 1026.7 - 0.0
19/07:00am 19.2 15.9 9.4 53 5.2 NE 17 24 9 13 1026.4 - 0.0
19/06:30am 17.4 14.5 8.3 55 4.7 NE 13 20 7 11 1026.0 - 0.0
19/06:00am 16.8 13.9 8.2 57 4.4 ENE 13 20 7 11 1025.6 1024.9 0.0
19/05:30am 16.3 13.4 8.0 58 4.2 ENE 13 19 7 10 1025.1 - 0.0
19/05:00am 16.6 13.6 7.5 55 4.6 ENE 13 19 7 10 1024.6 - 0.0
19/04:30am 16.9 14.1 7.0 52 5.0 ENE 11 15 6 8 1024.1 - 0.0
19/04:00am 17.3 14.8 6.5 49 5.4 ENE 9 13 5 7 1023.9 - 0.0
19/03:30am 17.9 14.5 6.1 46 5.9 ENE 13 17 7 9 1023.7 - 0.0
19/03:00am 18.3 14.9 5.8 44 6.2 NE 13 19 7 10 1023.3 1022.6 0.0
19/02:30am 18.8 15.2 4.9 40 6.8 NE 13 19 7 10 1023.1 - 0.0
19/02:00am 19.3 15.7 5.0 39 7.0 NE 13 20 7 11 1023.2 - 0.0
19/01:30am 19.0 15.1 3.2 35 7.5 NE 13 19 7 10 1023.2 - 0.0
19/01:00am 18.3 14.5 1.8 33 7.5 ENE 11 15 6 8 1023.2 - 0.0
19/12:30am 15.5 12.0 1.3 38 6.3 E 9 11 5 6 1023.5 - 0.0
19/12:00am 15.9 13.2 0.1 34 6.8 ESE 4 6 2 3 1023.5 1022.8 0.0
 
Date/Time
EST
Temp
°C
App
Temp
°C
Dew
Point
Rel
Hum
%
Delta-T
°C
Wind Press
QNH
hPa
Press
MSL
hPa
Rain
since 9 am
mm
Dir
 
Spd
km/h
Gust
km/h
Spd
kts
Gust
kts
18/11:30pm 18.1 15.0 0.3 30 7.9 ENE 6 7 3 4 1023.5 - 0.0
18/11:00pm 20.1 16.5 0.5 27 8.8 E 9 11 5 6 1023.5 - 0.0
18/10:30pm 20.4 16.8 0.8 27 8.9 E 9 11 5 6 1023.5 - 0.0
18/10:00pm 20.2 16.6 0.6 27 8.9 E 9 9 5 5 1023.6 - 0.0
18/09:30pm 20.8 17.3 1.1 27 9.0 ESE 9 11 5 6 1023.6 - 0.0
18/09:00pm 21.4 17.9 1.1 26 9.3 ESE 9 11 5 6 1023.5 1022.8 0.0
18/08:30pm 22.0 18.4 0.5 24 9.9 E 9 13 5 7 1023.3 - 0.0
18/08:00pm 23.0 19.4 0.8 23 10.3 ESE 9 13 5 7 1023.0 - 0.0
18/07:30pm 24.0 20.4 0.4 21 11.0 ESE 9 13 5 7 1022.6 - 0.0
18/07:00pm 24.5 21.2 0.1 20 11.3 ESE 7 11 4 6 1022.2 - 0.0
18/06:30pm 26.1 22.5 0.7 19 12.1 ESE 9 11 5 6 1021.7 - 0.0
18/06:00pm 27.5 23.5 0.3 17 12.9 ESE 11 15 6 8 1021.3 1020.6 0.0
18/05:30pm 28.1 22.9 -0.1 16 13.4 ESE 17 22 9 12 1021.0 - 0.0
18/05:00pm 28.5 23.4 -1.6 14 14.0 ESE 15 20 8 11 1020.6 - 0.0
18/04:30pm 29.0 23.2 -1.2 14 14.1 ESE 19 24 10 13 1020.5 - 0.0
18/04:00pm 28.7 23.8 -0.5 15 13.8 ESE 15 26 8 14 1020.4 - 0.0
18/03:30pm 29.3 25.4 0.9 16 13.8 E 11 19 6 10 1020.3 - 0.0
18/03:00pm 28.8 25.3 1.3 17 13.4 SE 9 20 5 11 1020.4 1019.7 0.0
18/02:30pm 28.5 23.5 1.1 17 13.3 SE 17 33 9 18 1020.9 - 0.0
18/02:00pm 28.1 25.1 2.3 19 12.8 E 7 28 4 15 1021.5 - 0.0
18/01:30pm 28.2 24.6 0.9 17 13.2 NNE 9 17 5 9 1022.1 - 0.0
18/01:00pm 28.5 25.1 1.9 18 13.1 S 9 13 5 7 1022.4 - 0.0
18/12:30pm 27.5 24.5 1.8 19 12.6 SE 7 15 4 8 1022.9 - 0.0
18/12:00pm 27.6 24.4 3.3 21 12.2 N 9 19 5 10 1023.6 1022.9 0.0
18/11:30am 26.5 23.0 3.7 23 11.5 E 11 20 6 11 1023.9 - 0.0
18/11:00am 26.7 22.9 3.9 23 11.5 ENE 13 20 7 11 1024.2 - 0.0
18/10:30am 25.1 21.7 5.8 29 10.0 NE 13 24 7 13 1024.4 - 0.0
18/10:00am 24.9 21.6 6.6 31 9.6 NE 13 22 7 12 1024.9 - 0.0
18/09:30am 23.7 20.4 9.7 41 7.7 NNE 17 26 9 14 1025.1 - 0.0
18/09:00am 22.4 18.7 9.6 44 6.9 NNE 19 30 10 16 1025.1 1024.4 0.0
18/08:30am 21.8 17.8 10.6 49 6.2 NNE 22 32 12 17 1025.0 - 0.0
18/08:00am 20.7 16.9 9.9 50 5.9 NE 20 32 11 17 1025.0 - 0.0
18/07:30am 19.2 15.2 9.1 52 5.4 ENE 20 30 11 16 1024.8 - 0.0
18/07:00am 17.7 13.5 5.6 45 5.9 ENE 17 28 9 15 1024.4 - 0.0
18/06:30am 16.3 12.5 2.0 38 6.4 ENE 11 19 6 10 1024.0 - 0.0
18/06:00am 13.7 9.6 -2.7 32 6.5 E 9 13 5 7 1023.5 1022.8 0.0
18/05:30am 12.5 8.5 -2.5 35 5.9 E 9 13 5 7 1023.0 - 0.0
18/05:00am 12.8 8.5 -1.9 36 5.9 E 11 17 6 9 1022.6 - 0.0
18/04:30am 12.6 8.2 -2.1 36 5.9 E 11 13 6 7 1022.1 - 0.0
18/04:00am 13.4 9.3 -2.9 32 6.4 ESE 9 11 5 6 1022.0 - 0.0
18/03:30am 14.6 10.1 -3.2 29 7.1 SE 11 13 6 7 1021.8 - 0.0
18/03:00am 15.2 10.8 -2.7 29 7.2 SSE 11 13 6 7 1021.5 1020.8 0.0
18/02:30am 15.4 11.0 -2.5 29 7.3 S 11 15 6 8 1021.5 - 0.0
18/02:00am 15.9 11.1 -2.6 28 7.5 S 13 17 7 9 1021.5 - 0.0
18/01:30am 15.9 11.1 -2.6 28 7.5 S 13 17 7 9 1021.8 - 0.0
18/01:00am 15.6 10.8 -2.8 28 7.4 S 13 17 7 9 1022.0 - 0.0
18/12:30am 14.2 10.2 -2.2 32 6.6 S 9 11 5 6 1022.1 - 0.0
18/12:00am 13.2 9.7 -1.5 36 5.9 S 7 7 4 4 1022.0 1021.3 0.0
 
Date/Time
EST
Temp
°C
App
Temp
°C
Dew
Point
Rel
Hum
%
Delta-T
°C
Wind Press
QNH
hPa
Press
MSL
hPa
Rain
since 9 am
mm
Dir
 
Spd
km/h
Gust
km/h
Spd
kts
Gust
kts
17/11:30pm 13.8 10.3 -2.6 32 6.5 S 6 7 3 4 1022.2 - 0.0
17/11:00pm 14.8 12.4 -3.0 29 7.1 CALM 0 0 0 0 1022.3 - 0.0
17/10:30pm 15.1 11.5 -2.3 30 7.1 S 7 9 4 5 1022.3 - 0.0
17/10:00pm 15.1 11.3 -0.6 34 6.6 SSW 9 9 5 5 1022.2 - 0.0

Other Formats:

Comma delimited format used in spreadsheet applications
http://www.bom.gov.au/fwo/IDQ60801/IDQ60801.94517.axf

JavaScript Object Notation format (JSON) in row-major order
http://www.bom.gov.au/fwo/IDQ60801/IDQ60801.94517.json